createdAt,value
2022-10-11T00:02:07.140Z,11.23
2022-10-11T00:04:34.886Z,11.21
2022-10-11T00:07:02.625Z,11.18
2022-10-11T00:09:31.464Z,11.17
2022-10-11T00:11:59.294Z,11.14
2022-10-11T00:14:28.009Z,11.14
2022-10-11T00:16:57.412Z,11.13
2022-10-11T00:19:25.217Z,11.11
2022-10-11T00:21:53.031Z,11.10
2022-10-11T00:24:20.974Z,11.08
2022-10-11T00:26:48.772Z,11.07
2022-10-11T00:29:16.514Z,11.04
2022-10-11T00:31:44.283Z,11.02
2022-10-11T00:34:15.569Z,10.98
2022-10-11T00:36:43.332Z,10.95
2022-10-11T00:39:12.297Z,10.92
2022-10-11T00:41:41.570Z,10.87
2022-10-11T00:44:11.281Z,10.82
2022-10-11T00:46:41.000Z,10.79
2022-10-11T00:49:18.231Z,10.74
2022-10-11T00:51:51.876Z,10.70
2022-10-11T00:54:23.046Z,10.67
2022-10-11T00:56:54.462Z,10.63
2022-10-11T00:59:25.899Z,10.59
2022-10-11T01:01:53.854Z,10.55
2022-10-11T01:04:23.060Z,10.52
2022-10-11T01:06:51.663Z,10.47
2022-10-11T01:09:21.329Z,10.45
2022-10-11T01:11:53.771Z,10.42
2022-10-11T01:14:43.996Z,10.37
2022-10-11T01:17:25.326Z,10.33
2022-10-11T01:20:13.616Z,10.28
2022-10-11T01:23:09.473Z,10.24
2022-10-11T01:25:42.689Z,10.24
2022-10-11T01:28:27.613Z,10.19
2022-10-11T01:31:01.508Z,10.18
2022-10-11T01:33:36.858Z,10.16
2022-10-11T01:36:12.809Z,10.14
2022-10-11T01:38:47.880Z,10.11
2022-10-11T01:41:20.251Z,10.08
2022-10-11T01:43:49.524Z,10.05
2022-10-11T01:46:21.071Z,10.02
2022-10-11T01:48:50.725Z,10.00
2022-10-11T01:51:22.605Z,9.97
2022-10-11T01:54:05.553Z,9.93
2022-10-11T01:56:47.709Z,9.91
2022-10-11T01:59:26.057Z,9.87
2022-10-11T02:02:07.347Z,9.85
2022-10-11T02:04:41.978Z,9.83
2022-10-11T02:07:13.999Z,9.80
2022-10-11T02:09:47.523Z,9.79
2022-10-11T02:12:23.825Z,9.76
2022-10-11T02:14:55.688Z,9.73
2022-10-11T02:17:30.789Z,9.70
2022-10-11T02:20:00.291Z,9.68
2022-10-11T02:22:33.038Z,9.67
2022-10-11T02:25:04.480Z,9.63
2022-10-11T02:27:35.232Z,9.60
2022-10-11T02:30:07.339Z,9.58
2022-10-11T02:32:40.994Z,9.55
2022-10-11T02:35:10.562Z,9.52
2022-10-11T02:37:44.637Z,9.48
2022-10-11T02:40:17.359Z,9.46
2022-10-11T02:42:49.729Z,9.45
2022-10-11T02:45:23.444Z,9.42
2022-10-11T02:47:53.102Z,9.41
2022-10-11T02:50:23.117Z,9.38
2022-10-11T02:52:51.112Z,9.35
2022-10-11T02:55:19.146Z,9.33
2022-10-11T02:57:47.068Z,9.31
2022-10-11T03:00:15.806Z,9.27
2022-10-11T03:02:43.637Z,9.26
2022-10-11T03:05:12.783Z,9.25
2022-10-11T03:07:40.596Z,9.23
2022-10-11T03:10:08.943Z,9.21
2022-10-11T03:12:36.767Z,9.18
2022-10-11T03:15:04.958Z,9.17
2022-10-11T03:17:36.732Z,9.12
2022-10-11T03:20:06.318Z,9.11
2022-10-11T03:22:35.630Z,9.08
2022-10-11T03:25:04.638Z,9.07
2022-10-11T03:27:32.731Z,9.05
2022-10-11T03:30:00.578Z,9.04
2022-10-11T03:32:28.546Z,9.03
2022-10-11T03:34:56.413Z,9.00
2022-10-11T03:37:25.224Z,8.98
2022-10-11T03:39:54.474Z,8.97
2022-10-11T03:42:22.272Z,8.94
2022-10-11T03:44:51.956Z,8.93
2022-10-11T03:47:20.066Z,8.91
2022-10-11T03:49:47.934Z,8.90
2022-10-11T03:52:15.711Z,8.87
2022-10-11T03:54:43.488Z,8.85
2022-10-11T03:57:12.680Z,8.81
2022-10-11T03:59:40.461Z,8.80
2022-10-11T04:02:08.330Z,8.77
2022-10-11T04:04:36.334Z,8.76
2022-10-11T04:07:04.480Z,8.74
2022-10-11T04:09:32.406Z,8.73
2022-10-11T04:12:00.849Z,8.71
2022-10-11T04:14:30.071Z,8.69
2022-10-11T04:17:00.377Z,8.68
2022-10-11T04:19:28.854Z,8.65
2022-10-11T04:21:56.582Z,8.63
2022-10-11T04:24:24.377Z,8.61
2022-10-11T04:26:52.168Z,8.60
2022-10-11T04:29:19.884Z,8.58
2022-10-11T04:31:49.102Z,8.57
2022-10-11T04:34:17.298Z,8.54
2022-10-11T04:36:49.613Z,8.52
2022-10-11T04:39:17.843Z,8.49
2022-10-11T04:41:45.676Z,8.46
2022-10-11T04:44:13.500Z,8.43
2022-10-11T04:46:41.292Z,8.40
2022-10-11T04:49:10.402Z,8.38
2022-10-11T04:51:38.205Z,8.36
2022-10-11T04:54:06.115Z,8.35
2022-10-11T04:56:33.896Z,8.34
2022-10-11T04:59:01.722Z,8.34
2022-10-11T05:01:29.537Z,8.31
2022-10-11T05:03:57.335Z,8.31
2022-10-11T05:06:26.484Z,8.28
2022-10-11T05:08:54.207Z,8.26
2022-10-11T05:11:22.000Z,8.24
2022-10-11T05:13:50.084Z,8.24
2022-10-11T05:16:18.340Z,8.21
2022-10-11T05:18:46.291Z,8.18
2022-10-11T05:21:17.467Z,8.16
2022-10-11T05:23:48.166Z,8.14
2022-10-11T05:26:16.211Z,8.12
2022-10-11T05:28:44.262Z,8.10
2022-10-11T05:31:12.116Z,8.08
2022-10-11T05:33:40.212Z,8.07
2022-10-11T05:36:09.674Z,8.05
2022-10-11T05:38:38.981Z,8.02
2022-10-11T05:41:10.026Z,8.00
2022-10-11T05:43:37.854Z,7.99
2022-10-11T05:46:06.879Z,7.97
2022-10-11T05:48:35.179Z,7.96
2022-10-11T05:51:03.681Z,7.94
2022-10-11T05:53:32.185Z,7.92
2022-10-11T05:56:00.307Z,7.91
2022-10-11T05:58:29.655Z,7.90
2022-10-11T06:00:57.750Z,7.89
2022-10-11T06:03:25.878Z,7.87
2022-10-11T06:05:56.928Z,7.85
2022-10-11T06:08:25.151Z,7.85
2022-10-11T06:10:52.999Z,7.84
2022-10-11T06:13:20.814Z,7.84
2022-10-11T06:15:50.263Z,7.83
2022-10-11T06:18:18.011Z,7.83
2022-10-11T06:20:45.805Z,7.82
2022-10-11T06:23:13.656Z,7.82
2022-10-11T06:25:41.461Z,7.82
2022-10-11T06:28:09.349Z,7.82
2022-10-11T06:30:39.400Z,7.82
2022-10-11T06:33:08.660Z,7.83
2022-10-11T06:35:36.428Z,7.85
2022-10-11T06:38:04.206Z,7.89
2022-10-11T06:40:32.059Z,7.92
2022-10-11T06:42:59.841Z,7.96
2022-10-11T06:45:27.576Z,8.00
2022-10-11T06:47:55.341Z,8.05
2022-10-11T06:50:47.093Z,8.07
2022-10-11T06:53:12.705Z,8.09
2022-10-11T06:55:40.866Z,8.11
2022-10-11T06:58:08.544Z,8.14
2022-10-11T07:00:36.316Z,8.16
2022-10-11T07:03:04.859Z,8.18
2022-10-11T07:05:35.839Z,8.20
2022-10-11T07:08:03.636Z,8.21
2022-10-11T07:10:31.388Z,8.21
2022-10-11T07:12:59.081Z,8.24
2022-10-11T07:15:27.022Z,8.26
2022-10-11T07:17:54.769Z,8.28
2022-10-11T07:20:22.606Z,8.30
2022-10-11T07:22:51.724Z,8.33
2022-10-11T07:25:19.496Z,8.36
2022-10-11T07:27:47.264Z,8.43
2022-10-11T07:30:15.007Z,8.56
2022-10-11T07:32:42.774Z,8.72
2022-10-11T07:35:13.556Z,8.87
2022-10-11T07:37:41.325Z,9.08
2022-10-11T07:40:11.652Z,9.30
2022-10-11T07:42:39.586Z,9.55
2022-10-11T07:45:07.965Z,9.72
2022-10-11T07:47:35.711Z,9.86
2022-10-11T07:50:03.457Z,10.00
2022-10-11T07:52:31.207Z,10.15
2022-10-11T07:54:58.944Z,10.28
2022-10-11T07:57:28.109Z,10.29
2022-10-11T07:59:55.935Z,10.37
2022-10-11T08:02:23.733Z,10.50
2022-10-11T08:04:51.668Z,10.62
2022-10-11T08:07:19.470Z,10.72
2022-10-11T08:09:47.321Z,10.81
2022-10-11T08:12:15.152Z,10.85
2022-10-11T08:14:44.348Z,10.89
2022-10-11T08:17:12.134Z,10.94
2022-10-11T08:19:39.957Z,11.03
2022-10-11T08:22:08.038Z,11.08
2022-10-11T08:24:38.277Z,11.12
2022-10-11T08:27:06.411Z,11.16
2022-10-11T08:29:34.632Z,11.16
2022-10-11T08:32:03.787Z,11.20
2022-10-11T08:34:31.592Z,11.22
2022-10-11T08:36:59.449Z,11.26
2022-10-11T08:39:27.296Z,11.32
2022-10-11T08:41:56.939Z,11.38
2022-10-11T08:45:09.658Z,11.39
2022-10-11T08:47:33.913Z,11.47
2022-10-11T08:50:02.277Z,11.53
2022-10-11T08:52:46.318Z,11.59
2022-10-11T08:55:20.375Z,11.69
2022-10-11T08:57:53.354Z,11.79
2022-10-11T09:00:22.470Z,11.91
2022-10-11T09:03:09.982Z,12.04
2022-10-11T09:05:48.088Z,12.23
2022-10-11T09:08:23.293Z,12.35
2022-10-11T09:11:00.873Z,12.51
2022-10-11T09:13:53.594Z,12.67
2022-10-11T09:16:30.358Z,12.82
2022-10-11T09:19:16.038Z,12.98
2022-10-11T09:21:53.019Z,13.17
2022-10-11T09:24:35.066Z,13.31
2022-10-11T09:27:14.290Z,13.53
2022-10-11T09:29:55.684Z,13.64
2022-10-11T09:32:26.104Z,13.84
2022-10-11T09:35:01.173Z,14.01
2022-10-11T09:37:34.510Z,14.21
2022-10-11T09:40:18.666Z,14.39
2022-10-11T09:42:46.476Z,14.51
2022-10-11T09:45:18.493Z,14.68
2022-10-11T09:47:46.561Z,14.81
2022-10-11T09:50:20.020Z,14.96
2022-10-11T09:52:51.966Z,15.12
2022-10-11T09:55:36.105Z,15.26
2022-10-11T09:58:04.975Z,15.40
2022-10-11T10:00:33.877Z,15.41
2022-10-11T10:03:03.517Z,15.49
2022-10-11T10:05:34.257Z,15.54
2022-10-11T10:08:08.101Z,15.65
2022-10-11T10:10:39.718Z,15.75
2022-10-11T10:13:20.949Z,15.86
2022-10-11T10:15:51.914Z,16.10
2022-10-11T10:18:23.734Z,16.31
2022-10-11T10:20:59.460Z,16.44
2022-10-11T10:23:30.755Z,16.55
2022-10-11T10:26:13.324Z,16.67
2022-10-11T10:28:55.942Z,16.81
2022-10-11T10:31:26.410Z,16.98
2022-10-11T10:33:55.764Z,17.06
2022-10-11T10:36:30.588Z,17.08
2022-10-11T10:39:03.523Z,17.06
2022-10-11T10:41:31.426Z,17.10
2022-10-11T10:44:01.195Z,17.15
2022-10-11T10:46:41.549Z,17.07
2022-10-11T10:49:52.486Z,17.01
2022-10-11T10:52:26.794Z,17.01
2022-10-11T10:55:03.829Z,17.10
2022-10-11T10:57:45.457Z,17.16
2022-10-11T11:00:17.118Z,17.22
2022-10-11T11:02:51.607Z,17.30
2022-10-11T11:05:28.213Z,17.38
2022-10-11T11:08:08.299Z,17.38
2022-10-11T11:10:40.003Z,17.31
2022-10-11T11:13:28.561Z,17.14
2022-10-11T11:16:07.686Z,17.01
2022-10-11T11:18:43.254Z,16.87
2022-10-11T11:21:23.328Z,16.80
2022-10-11T11:24:02.691Z,16.80
2022-10-11T11:26:40.776Z,16.82
2022-10-11T11:29:22.217Z,16.86
2022-10-11T11:32:08.334Z,16.90
2022-10-11T11:34:42.461Z,17.01
2022-10-11T11:37:17.946Z,17.04
2022-10-11T11:39:51.787Z,17.03
2022-10-11T11:42:24.394Z,17.08
2022-10-11T11:44:52.805Z,17.21
2022-10-11T11:47:26.878Z,17.24
2022-10-11T11:49:59.776Z,17.26
2022-10-11T11:52:32.605Z,17.28
2022-10-11T11:55:09.913Z,17.32
2022-10-11T11:57:53.109Z,17.29
2022-10-11T12:00:23.312Z,17.30
2022-10-11T12:02:54.378Z,17.30
2022-10-11T12:05:25.361Z,17.36
2022-10-11T12:07:57.521Z,17.18
2022-10-11T12:10:34.165Z,17.15
2022-10-11T12:13:17.250Z,17.06
2022-10-11T12:16:13.577Z,16.94
2022-10-11T12:18:55.043Z,16.93
2022-10-11T12:21:30.630Z,16.97
2022-10-11T12:24:00.119Z,16.90
2022-10-11T12:26:41.576Z,16.83
2022-10-11T12:29:29.141Z,16.80
2022-10-11T12:32:53.448Z,16.85
2022-10-11T12:35:58.102Z,16.95
2022-10-11T12:38:31.772Z,17.07
2022-10-11T12:41:01.636Z,17.13
2022-10-11T12:43:36.286Z,17.18
2022-10-11T12:46:39.340Z,17.21
2022-10-11T12:49:21.774Z,17.21
2022-10-11T12:51:59.973Z,17.15
2022-10-11T12:54:54.008Z,17.10
2022-10-11T12:57:51.636Z,17.12
2022-10-11T13:00:26.148Z,17.16
2022-10-11T13:02:53.906Z,17.20
2022-10-11T13:05:27.137Z,17.20
2022-10-11T13:07:59.032Z,17.16
2022-10-11T13:10:31.724Z,17.09
2022-10-11T13:13:04.355Z,17.06
2022-10-11T13:15:32.476Z,17.04
2022-10-11T13:18:01.538Z,17.02
2022-10-11T13:20:32.209Z,17.02
2022-10-11T13:23:02.292Z,17.08
2022-10-11T13:25:37.438Z,17.15
2022-10-11T13:28:09.973Z,17.18
2022-10-11T13:30:43.400Z,17.22
2022-10-11T13:33:19.409Z,17.22
2022-10-11T13:35:48.489Z,17.20
2022-10-11T13:38:21.828Z,17.21
2022-10-11T13:40:51.236Z,17.26
2022-10-11T13:43:23.434Z,17.29
2022-10-11T13:45:51.452Z,17.31
2022-10-11T13:48:19.406Z,17.37
2022-10-11T13:51:06.563Z,17.34
2022-10-11T13:53:36.109Z,17.45
2022-10-11T13:56:07.360Z,17.45
2022-10-11T13:58:40.367Z,17.46
2022-10-11T14:01:19.038Z,17.42
2022-10-11T14:03:48.748Z,17.41
2022-10-11T14:06:16.671Z,17.38
2022-10-11T14:08:47.740Z,17.42
2022-10-11T14:11:16.776Z,17.48
2022-10-11T14:13:46.424Z,17.47
2022-10-11T14:16:29.126Z,17.50
2022-10-11T14:19:10.046Z,17.46
2022-10-11T14:21:51.223Z,17.45
2022-10-11T14:24:20.998Z,17.53
2022-10-11T14:26:51.473Z,17.54
2022-10-11T14:29:25.624Z,17.62
2022-10-11T14:31:56.390Z,17.72
2022-10-11T14:34:27.117Z,17.76
2022-10-11T14:36:54.970Z,17.78
2022-10-11T14:39:27.557Z,17.83
2022-10-11T14:41:55.635Z,17.84
2022-10-11T14:44:24.084Z,17.87
2022-10-11T14:46:54.702Z,17.90
2022-10-11T14:49:25.261Z,17.92
2022-10-11T14:51:54.487Z,17.97
2022-10-11T14:54:25.608Z,18.05
2022-10-11T14:56:55.972Z,18.08
2022-10-11T14:59:26.788Z,18.08
2022-10-11T15:01:54.816Z,18.07
2022-10-11T15:04:23.512Z,18.00
2022-10-11T15:06:52.440Z,17.97
2022-10-11T15:09:21.527Z,17.96
2022-10-11T15:11:52.862Z,17.98
2022-10-11T15:14:20.621Z,17.96
2022-10-11T15:16:48.857Z,17.91
2022-10-11T15:19:18.457Z,17.85
2022-10-11T15:21:46.768Z,17.82
2022-10-11T15:24:14.943Z,17.83
2022-10-11T15:26:42.756Z,17.86
2022-10-11T15:29:13.776Z,17.77
2022-10-11T15:31:41.582Z,17.64
2022-10-11T15:34:09.452Z,17.64
2022-10-11T15:36:37.208Z,17.64
2022-10-11T15:39:05.239Z,17.62
2022-10-11T15:41:33.066Z,17.59
2022-10-11T15:44:00.844Z,17.41
2022-10-11T15:46:30.141Z,17.36
2022-10-11T15:48:57.917Z,17.33
2022-10-11T15:51:25.820Z,17.29
2022-10-11T15:53:53.639Z,17.24
2022-10-11T15:56:21.423Z,17.21
2022-10-11T15:58:50.110Z,17.19
2022-10-11T16:01:20.279Z,17.14
2022-10-11T16:03:50.807Z,17.06
2022-10-11T16:06:19.571Z,16.98
2022-10-11T16:08:48.136Z,16.93
2022-10-11T16:11:16.029Z,16.88
2022-10-11T16:13:45.093Z,16.83
2022-10-11T16:16:13.446Z,16.76
2022-10-11T16:18:41.570Z,16.71
2022-10-11T16:21:15.458Z,16.65
2022-10-11T16:23:43.403Z,16.57
2022-10-11T16:26:16.278Z,16.50
2022-10-11T16:28:44.503Z,16.44
2022-10-11T16:31:18.010Z,16.37
2022-10-11T16:33:50.149Z,16.28
2022-10-11T16:36:36.095Z,16.20
2022-10-11T16:39:08.131Z,16.11
2022-10-11T16:41:36.045Z,16.05
2022-10-11T16:44:03.869Z,15.95
2022-10-11T16:46:32.838Z,15.89
2022-10-11T16:49:00.842Z,15.80
2022-10-11T16:51:30.061Z,15.73
2022-10-11T16:53:58.213Z,15.64
2022-10-11T16:56:26.080Z,15.58
2022-10-11T16:58:54.288Z,15.50
2022-10-11T17:01:22.525Z,15.46
2022-10-11T17:03:50.840Z,15.42
2022-10-11T17:06:19.242Z,15.41
2022-10-11T17:08:48.402Z,15.36
2022-10-11T17:11:17.419Z,15.31
2022-10-11T17:13:45.383Z,15.23
2022-10-11T17:16:14.092Z,15.20
2022-10-11T17:18:41.865Z,15.16
2022-10-11T17:21:13.041Z,15.09
2022-10-11T17:23:41.039Z,15.03
2022-10-11T17:26:13.362Z,14.99
2022-10-11T17:28:41.653Z,14.96
2022-10-11T17:31:10.219Z,14.91
2022-10-11T17:33:38.603Z,14.85
2022-10-11T17:36:16.505Z,14.81
2022-10-11T17:38:44.342Z,14.77
2022-10-11T17:41:13.669Z,14.72
2022-10-11T17:43:41.900Z,14.67
2022-10-11T17:46:10.145Z,14.61
2022-10-11T17:48:39.402Z,14.53
2022-10-11T17:51:09.162Z,14.48
2022-10-11T17:53:37.290Z,14.41
2022-10-11T17:56:06.373Z,14.37
2022-10-11T17:58:36.283Z,14.32
2022-10-11T18:01:05.931Z,14.25
2022-10-11T18:03:34.485Z,14.18
2022-10-11T18:06:06.719Z,14.11
2022-10-11T18:08:39.999Z,14.02
2022-10-11T18:11:12.777Z,13.95
2022-10-11T18:13:45.997Z,13.87
2022-10-11T18:16:14.974Z,13.81
2022-10-11T18:18:42.899Z,13.73
2022-10-11T18:21:11.179Z,13.65
2022-10-11T18:23:39.256Z,13.58
2022-10-11T18:26:11.878Z,13.52
2022-10-11T18:28:41.694Z,13.46
2022-10-11T18:31:13.746Z,13.39
2022-10-11T18:33:42.429Z,13.33
2022-10-11T18:36:13.514Z,13.27
2022-10-11T18:38:46.322Z,13.20
2022-10-11T18:41:16.737Z,13.14
2022-10-11T18:43:49.739Z,13.09
2022-10-11T18:46:18.074Z,13.04
2022-10-11T18:48:47.828Z,12.98
2022-10-11T18:51:18.419Z,12.93
2022-10-11T18:53:47.079Z,12.86
2022-10-11T18:56:16.909Z,12.80
2022-10-11T18:58:46.381Z,12.75
2022-10-11T19:01:17.301Z,12.69
2022-10-11T19:03:46.692Z,12.64
2022-10-11T19:06:18.217Z,12.59
2022-10-11T19:08:46.654Z,12.53
2022-10-11T19:11:16.638Z,12.48
2022-10-11T19:13:46.116Z,12.42
2022-10-11T19:16:16.663Z,12.37
2022-10-11T19:18:45.200Z,12.32
2022-10-11T19:21:14.568Z,12.26
2022-10-11T19:23:44.552Z,12.23
2022-10-11T19:26:15.829Z,12.19
2022-10-11T19:28:44.512Z,12.16
2022-10-11T19:31:16.937Z,12.09
2022-10-11T19:33:48.024Z,12.06
2022-10-11T19:36:16.289Z,12.01
2022-10-11T19:38:46.192Z,11.97
2022-10-11T19:41:15.077Z,11.92
2022-10-11T19:43:43.168Z,11.88
2022-10-11T19:46:20.246Z,11.83
2022-10-11T19:48:56.064Z,11.78
2022-10-11T19:51:26.284Z,11.75
2022-10-11T19:53:57.068Z,11.71
2022-10-11T19:56:25.352Z,11.68
2022-10-11T19:58:53.424Z,11.62
2022-10-11T20:01:24.400Z,11.59
2022-10-11T20:03:54.897Z,11.56
2022-10-11T20:06:24.666Z,11.51
2022-10-11T20:09:16.765Z,11.48
2022-10-11T20:11:41.275Z,11.43
2022-10-11T20:14:09.500Z,11.37
2022-10-11T20:16:39.116Z,11.33
2022-10-11T20:19:07.002Z,11.28
2022-10-11T20:21:34.860Z,11.24
2022-10-11T20:24:05.052Z,11.20
2022-10-11T20:26:33.282Z,11.16
2022-10-11T20:29:04.464Z,11.14
2022-10-11T20:31:34.171Z,11.10
2022-10-11T20:34:06.194Z,11.05
2022-10-11T20:36:36.261Z,11.02
2022-10-11T20:39:06.371Z,10.98
2022-10-11T20:41:37.075Z,10.94
2022-10-11T20:44:05.688Z,10.92
2022-10-11T20:46:35.266Z,10.87
2022-10-11T20:49:06.317Z,10.85
2022-10-11T20:51:36.301Z,10.81
2022-10-11T20:54:04.967Z,10.75
2022-10-11T20:56:33.709Z,10.72
2022-10-11T20:59:01.844Z,10.68
2022-10-11T21:01:31.796Z,10.65
2022-10-11T21:04:00.603Z,10.61
2022-10-11T21:06:31.466Z,10.58
2022-10-11T21:09:00.192Z,10.56
2022-10-11T21:11:28.589Z,10.56
2022-10-11T21:13:57.540Z,10.55
2022-10-11T21:16:26.016Z,10.55
2022-10-11T21:18:55.505Z,10.53
2022-10-11T21:21:24.845Z,10.51
2022-10-11T21:23:56.289Z,10.51
2022-10-11T21:26:24.142Z,10.50
2022-10-11T21:28:52.199Z,10.49
2022-10-11T21:31:21.378Z,10.47
2022-10-11T21:33:49.748Z,10.47
2022-10-11T21:36:19.778Z,10.46
2022-10-11T21:38:48.746Z,10.46
2022-10-11T21:41:20.411Z,10.45
2022-10-11T21:43:48.782Z,10.44
2022-10-11T21:46:18.874Z,10.42
2022-10-11T21:48:47.109Z,10.41
2022-10-11T21:51:16.716Z,10.40
2022-10-11T21:53:44.545Z,10.38
2022-10-11T21:56:12.455Z,10.35
2022-10-11T21:58:41.829Z,10.32
2022-10-11T22:01:09.904Z,10.27
2022-10-11T22:03:37.722Z,10.23
2022-10-11T22:06:06.050Z,10.19
2022-10-11T22:08:33.942Z,10.14
2022-10-11T22:11:02.243Z,10.12
2022-10-11T22:13:32.069Z,10.07
2022-10-11T22:16:05.501Z,10.03
2022-10-11T22:18:33.864Z,10.00
2022-10-11T22:21:06.440Z,9.96
2022-10-11T22:23:34.861Z,9.93
2022-10-11T22:26:06.839Z,9.88
2022-10-11T22:28:35.794Z,9.85
2022-10-11T22:31:07.193Z,9.82
2022-10-11T22:33:35.612Z,9.78
2022-10-11T22:36:08.722Z,9.74
2022-10-11T22:38:37.876Z,9.70
2022-10-11T22:41:05.965Z,9.65
2022-10-11T22:43:33.738Z,9.62
2022-10-11T22:46:01.919Z,9.58
2022-10-11T22:48:31.282Z,9.56
2022-10-11T22:50:59.061Z,9.53
2022-10-11T22:53:26.859Z,9.51
2022-10-11T22:55:54.888Z,9.50
2022-10-11T22:58:22.611Z,9.46
2022-10-11T23:00:50.464Z,9.43
2022-10-11T23:03:19.263Z,9.40
2022-10-11T23:05:56.494Z,9.34
2022-10-11T23:08:24.317Z,9.33
2022-10-11T23:10:52.250Z,9.30
2022-10-11T23:13:20.232Z,9.27
2022-10-11T23:15:48.043Z,9.24
2022-10-11T23:18:16.398Z,9.22
2022-10-11T23:20:44.183Z,9.20
2022-10-11T23:23:13.363Z,9.16
2022-10-11T23:25:41.130Z,9.13
2022-10-11T23:28:10.820Z,9.10
2022-10-11T23:30:40.648Z,9.09
2022-10-11T23:33:08.440Z,9.06
2022-10-11T23:35:36.570Z,9.04
2022-10-11T23:38:04.403Z,9.02
2022-10-11T23:40:33.628Z,9.00
2022-10-11T23:43:01.386Z,8.98
2022-10-11T23:45:29.280Z,8.96
2022-10-11T23:47:57.134Z,8.94
2022-10-11T23:50:24.953Z,8.91
2022-10-11T23:52:52.673Z,8.88
2022-10-11T23:55:20.496Z,8.86
2022-10-11T23:57:49.721Z,8.83
